Allegheny, Pennsylvania
Current Conditions -  °F | °C
As of 5:53 AM on Saturday 25 Oct 2014 (Local Time) from KAGC Reporting Station
Broken Clouds Broken Clouds  
Wind Chill: 43°   Ceiling: 4400
Heat Index: 47°   Visibility: 10mi
Dew Point: 38°   Wind: 8mph
Humidity: 71%   Direction: 200°SSW
Pressure: 29.95"   Gusts: NA
Location:  40.4725°N, 80.0082°W
Report Text: KAGC 250953Z AUTO 20007KT 10SM BKN044 08/03 A2995 RMK AO2 SLP147 T00830033 TSNO
Loading
Personal Weather Stations






























Interactive Weather Map
Tropical Storm Tracking
New forecast layout! Learn more

10-Day Weather Forecast

Advertisements
Track Severe Weather on mobile